Strona główna
METAR-TAF:

METAR-TAF

Lotnisko :

Baza lotnicza Volkel

Uden, Holandia

Szerokość geograficzna: 51-39N, Długość geograficzna: 005-42E, wysokość: 22 m

Aktualna obserwacja pogody

Raport powstał 34 minut temu, godzina 05:25 UTC
Wiatr 8 kt od wschodnio-północny wschód, zmienny między północno-północny wschód i wschód
Temperatura 15°C
Wilgotność 63%
Ciśnienie 1023 hPa
Widzialność 10 km lub więcej
Zachmurzenie całkowite na wysokości 30000 ft

METAR: EHVK 010525Z AUTO 06008KT 030V090 9999 OVC300 15/08 Q1023 BLU

czas: 07:59 (05:59 UTC)

Prognoza

Raport powstał 1 godzina i 33 minut temu, godzina 04:26 UTC
Prognoza ważna od 01 godzina 05 UTC do 01 godzina 17 UTC
Wiatr 6 kt od wschodnio-północny wschód
Widzialność 10 km lub więcej
Brak chmur poniżej 1500 m i brak chmur cumulonimbus
Przejściowo
od 01 godzina 09 UTC do 01 godzina 17 UTC
Wiatr 8 kt od wschodnio-północny wschód w porywach dochodzący do 18 kt

TAF: EHVK 010426Z 0105/0117 06006KT CAVOK TEMPO 0109/0117 06008G18KT

Obserwacja i prognoza pogody dla ponad 4000 lotnisk (raport METAR i TAF).

Dostępne stacje oznaczono żółtymi i czerwonymi punktami na mapie.

Najedź kursorem aby zobaczyć nazwę stacji.

Kliknij aby zobaczyć obserwacje i prognozy pogody.

Aby zmienić mapę: kliknij na zielony przycisk z czarnym krzyżykiem, aby powiększyć; na zielony przycisk z myślnikiem, aby pomniejszyć; na zielone strzałki, aby przejść do map sąsiednich.


METAR-TAF: